Time;durP1;ratioP1;P1;durP2;ratioP2;P2;SDS_P1;SDS_P2;PMS_P1;PMS_P2;Temp;Humidity;BMP_temperature;BMP_pressure;BME280_temperature;BME280_humidity;BME280_pressure;Samples;Min_cycle;Max_cycle;Signal;HPM_P1;HPM_P2
2021/03/18 00:01:07;;;;;;;9.02;2.55;;;1.30;94.70;;;;;;5008781;28;20081;-74
2021/03/18 00:03:35;;;;;;;8.82;3.03;;;1.20;94.70;;;;;;5011862;28;20512;-74
2021/03/18 00:06:02;;;;;;;13.10;2.80;;;1.20;94.70;;;;;;5012628;28;20033;-74
2021/03/18 00:08:28;;;;;;;14.15;3.55;;;1.20;94.70;;;;;;5014289;28;20077;-74
2021/03/18 00:10:54;;;;;;;11.43;2.88;;;1.20;94.80;;;;;;5013283;28;20110;-74
2021/03/18 00:13:22;;;;;;;14.40;3.00;;;1.10;94.70;;;;;;5011551;28;20037;-74
2021/03/18 00:15:47;;;;;;;5.35;2.92;;;1.10;94.70;;;;;;5014175;28;20026;-74
2021/03/18 00:18:16;;;;;;;11.82;3.30;;;1.10;94.70;;;;;;5011632;28;20113;-74
2021/03/18 00:20:41;;;;;;;8.30;2.90;;;1.00;94.70;;;;;;5008030;28;20029;-74
2021/03/18 00:23:07;;;;;;;7.07;2.60;;;1.00;95.00;;;;;;5014218;28;20550;-74
2021/03/18 00:25:33;;;;;;;9.77;3.15;;;0.90;94.80;;;;;;5010464;28;20029;-74
2021/03/18 00:27:59;;;;;;;12.32;3.00;;;0.90;94.90;;;;;;5010151;28;20100;-74
2021/03/18 00:30:25;;;;;;;11.15;3.15;;;0.90;94.90;;;;;;5010690;28;20076;-73
2021/03/18 00:32:51;;;;;;;11.32;2.97;;;0.90;94.90;;;;;;5011903;28;20037;-74
2021/03/18 00:35:18;;;;;;;10.52;2.53;;;0.90;95.00;;;;;;5012963;28;20030;-74
2021/03/18 00:37:46;;;;;;;13.15;2.85;;;0.90;95.00;;;;;;5012981;28;20444;-74
2021/03/18 00:40:19;;;;;;;11.55;2.75;;;0.90;95.00;;;;;;5012859;28;20057;-74
2021/03/18 00:42:58;;;;;;;9.70;3.13;;;0.90;95.00;;;;;;5005358;28;20022;-73
2021/03/18 00:45:26;;;;;;;14.07;2.72;;;0.80;95.00;;;;;;5007485;28;20061;-74
2021/03/18 00:47:52;;;;;;;15.80;3.00;;;0.80;95.00;;;;;;5012402;28;20100;-74
2021/03/18 00:50:41;;;;;;;9.90;2.88;;;0.70;95.00;;;;;;5012251;28;20414;-74
2021/03/18 00:53:09;;;;;;;11.10;2.97;;;0.70;95.10;;;;;;5013521;28;20044;-74
2021/03/18 00:55:35;;;;;;;12.95;2.95;;;0.70;95.10;;;;;;5006938;28;20547;-74
2021/03/18 00:58:01;;;;;;;11.80;3.97;;;0.70;95.10;;;;;;5011653;28;20488;-74
2021/03/18 01:00:31;;;;;;;13.48;3.33;;;0.70;95.20;;;;;;5012790;28;20030;-74
2021/03/18 01:02:58;;;;;;;11.27;3.38;;;0.70;95.20;;;;;;5010586;28;20025;-74
2021/03/18 01:05:54;;;;;;;9.00;3.38;;;0.80;95.20;;;;;;5011660;28;20034;-74
2021/03/18 01:08:25;;;;;;;18.10;3.20;;;0.80;95.10;;;;;;4992774;28;20045;-74
2021/03/18 01:10:57;;;;;;;15.68;3.30;;;0.70;95.10;;;;;;5013123;28;20032;-74
2021/03/18 01:13:23;;;;;;;11.95;2.70;;;0.70;95.10;;;;;;5001253;28;20520;-74
2021/03/18 01:15:51;;;;;;;12.82;3.22;;;0.80;95.10;;;;;;5013050;28;20030;-74
2021/03/18 01:18:20;;;;;;;10.40;2.88;;;0.80;95.20;;;;;;5011319;28;20030;-74
2021/03/18 01:20:45;;;;;;;13.45;2.95;;;0.80;95.20;;;;;;5013621;28;20072;-74
2021/03/18 01:23:11;;;;;;;15.98;4.18;;;0.80;95.20;;;;;;5010841;28;20037;-74
2021/03/18 01:25:37;;;;;;;8.13;3.08;;;0.90;95.30;;;;;;5012532;28;20053;-74
2021/03/18 01:28:03;;;;;;;16.75;3.35;;;0.90;95.20;;;;;;5011786;28;20378;-74
2021/03/18 01:30:29;;;;;;;13.20;2.70;;;0.90;95.30;;;;;;5008899;28;20030;-73
2021/03/18 01:32:54;;;;;;;10.20;2.30;;;0.90;95.30;;;;;;5011267;28;20410;-74
2021/03/18 01:35:22;;;;;;;15.15;2.72;;;0.90;95.20;;;;;;5000662;28;20029;-74
2021/03/18 01:37:50;;;;;;;10.68;3.15;;;0.90;95.20;;;;;;5014651;28;20026;-74
2021/03/18 01:40:20;;;;;;;10.27;2.78;;;0.90;95.20;;;;;;5011371;28;20112;-74
2021/03/18 01:42:46;;;;;;;14.88;3.10;;;0.90;95.10;;;;;;4994148;28;20026;-74
2021/03/18 01:45:13;;;;;;;8.75;2.85;;;0.80;95.20;;;;;;5011981;28;20393;-74
2021/03/18 01:47:41;;;;;;;9.23;2.30;;;0.80;95.10;;;;;;5011890;28;20044;-74
2021/03/18 01:50:08;;;;;;;15.90;3.10;;;0.60;95.10;;;;;;5012333;28;20044;-74
2021/03/18 01:52:35;;;;;;;9.85;3.80;;;0.60;95.20;;;;;;4993776;28;20454;-74
2021/03/18 01:55:01;;;;;;;8.90;3.58;;;0.50;95.20;;;;;;5011299;28;20069;-74
2021/03/18 01:57:26;;;;;;;15.80;2.85;;;0.50;95.30;;;;;;5005364;28;20451;-74
2021/03/18 01:59:53;;;;;;;11.45;3.08;;;0.40;95.40;;;;;;5011040;28;20026;-74
2021/03/18 02:02:19;;;;;;;11.02;3.00;;;0.40;95.40;;;;;;5012764;28;20026;-74
2021/03/18 02:04:45;;;;;;;13.85;2.88;;;0.30;95.40;;;;;;4985241;28;20038;-74
2021/03/18 02:07:11;;;;;;;10.75;3.13;;;0.30;95.40;;;;;;5002718;28;20501;-74
2021/03/18 02:09:36;;;;;;;14.93;3.70;;;0.30;95.50;;;;;;5012180;28;20038;-74
2021/03/18 02:12:03;;;;;;;12.52;3.33;;;0.30;95.60;;;;;;5010150;28;20478;-74
2021/03/18 02:14:28;;;;;;;10.77;2.83;;;0.30;95.50;;;;;;5011974;28;20367;-74
2021/03/18 02:16:58;;;;;;;9.05;2.80;;;0.20;95.50;;;;;;5011491;28;20038;-74
2021/03/18 02:20:02;;;;;;;15.55;3.40;;;0.20;95.50;;;;;;5027084;28;20501;-74
2021/03/18 02:23:09;;;;;;;19.10;3.22;;;0.20;95.60;;;;;;4995447;28;20515;-73
2021/03/18 02:26:06;;;;;;;14.90;3.15;;;0.20;95.90;;;;;;5012725;28;20124;-74
2021/03/18 02:28:58;;;;;;;18.70;3.63;;;0.20;95.70;;;;;;5011890;28;20026;-74
2021/03/18 02:32:07;;;;;;;13.43;3.07;;;0.30;95.70;;;;;;5013406;28;20445;-74
2021/03/18 02:34:52;;;;;;;8.95;2.75;;;0.30;95.70;;;;;;5009247;28;20375;-74
2021/03/18 02:37:21;;;;;;;10.77;2.63;;;0.30;95.70;;;;;;5014046;28;20393;-74
2021/03/18 02:39:51;;;;;;;11.90;3.60;;;0.40;95.60;;;;;;5012186;28;20367;-74
2021/03/18 02:42:21;;;;;;;5.70;2.80;;;0.30;95.50;;;;;;5012723;28;20030;-74
2021/03/18 02:44:51;;;;;;;14.40;2.70;;;0.30;95.50;;;;;;5013787;28;20046;-74
2021/03/18 02:47:20;;;;;;;10.25;2.83;;;0.30;95.50;;;;;;5033157;28;20026;-74
2021/03/18 02:49:47;;;;;;;10.00;2.40;;;0.30;95.60;;;;;;5008278;28;20025;-73
2021/03/18 02:52:17;;;;;;;13.48;2.75;;;0.30;95.60;;;;;;5014039;28;20034;-74
2021/03/18 02:54:44;;;;;;;9.88;2.58;;;0.30;95.60;;;;;;5014100;28;20109;-74
2021/03/18 02:57:11;;;;;;;13.18;3.05;;;0.30;95.60;;;;;;5014219;28;20022;-74
2021/03/18 02:59:40;;;;;;;10.57;2.10;;;0.30;95.60;;;;;;5008051;28;20030;-74
2021/03/18 03:02:10;;;;;;;9.98;2.65;;;0.30;95.70;;;;;;5001233;28;20025;-73
2021/03/18 03:04:39;;;;;;;12.52;2.67;;;0.40;95.80;;;;;;5011720;28;20068;-74
2021/03/18 03:07:06;;;;;;;9.27;2.22;;;0.30;95.80;;;;;;5017114;28;20490;-74
2021/03/18 03:09:33;;;;;;;9.18;2.70;;;0.40;95.80;;;;;;5013106;28;20060;-74
2021/03/18 03:12:02;;;;;;;9.45;2.70;;;0.40;95.80;;;;;;4994189;28;20038;-72
2021/03/18 03:14:30;;;;;;;10.52;2.03;;;0.40;95.80;;;;;;5006999;28;20034;-74
2021/03/18 03:16:56;;;;;;;10.05;2.70;;;0.40;95.70;;;;;;5014349;28;20386;-74
2021/03/18 03:19:22;;;;;;;17.75;2.80;;;0.40;95.70;;;;;;5012304;28;20029;-74
2021/03/18 03:21:49;;;;;;;9.68;3.70;;;0.40;95.80;;;;;;5015226;28;20025;-74
2021/03/18 03:24:16;;;;;;;14.38;3.30;;;0.40;95.80;;;;;;5013218;28;20026;-74
2021/03/18 03:26:42;;;;;;;10.45;3.25;;;0.50;95.90;;;;;;5012266;28;20030;-74
2021/03/18 03:29:09;;;;;;;9.60;2.72;;;0.50;95.90;;;;;;5012554;28;20151;-74
2021/03/18 03:31:35;;;;;;;16.15;3.53;;;0.50;95.80;;;;;;5012662;28;20026;-74
2021/03/18 03:34:06;;;;;;;9.55;3.13;;;0.50;95.80;;;;;;5010060;28;20049;-74
2021/03/18 03:36:34;;;;;;;12.90;3.17;;;0.60;95.90;;;;;;5008460;28;20111;-74
2021/03/18 03:39:00;;;;;;;18.25;3.38;;;0.60;95.90;;;;;;5012118;28;20025;-74
2021/03/18 03:41:25;;;;;;;12.13;3.38;;;0.60;95.80;;;;;;5012900;28;20053;-74
2021/03/18 03:43:51;;;;;;;7.47;3.30;;;0.60;95.70;;;;;;5013359;28;20119;-74
2021/03/18 03:46:17;;;;;;;15.38;3.05;;;0.60;95.70;;;;;;5014742;28;20026;-75
2021/03/18 03:48:43;;;;;;;13.80;3.42;;;0.50;95.70;;;;;;4989242;28;20035;-74
2021/03/18 03:51:09;;;;;;;7.05;2.92;;;0.50;95.70;;;;;;5011669;28;20050;-75
2021/03/18 03:53:55;;;;;;;5.20;2.38;;;0.50;95.70;;;;;;4995718;28;20088;-74
2021/03/18 03:56:30;;;;;;;11.60;3.92;;;0.40;95.60;;;;;;5008722;28;20049;-74
2021/03/18 03:58:59;;;;;;;8.18;2.53;;;0.40;95.70;;;;;;5013185;28;20030;-74
2021/03/18 04:01:32;;;;;;;13.80;2.78;;;0.30;95.70;;;;;;5009459;28;20026;-74
2021/03/18 04:04:03;;;;;;;9.35;2.30;;;0.20;95.80;;;;;;5012819;28;20021;-75
2021/03/18 04:06:32;;;;;;;6.22;2.80;;;0.20;95.80;;;;;;5008638;28;20042;-74
2021/03/18 04:09:00;;;;;;;11.57;2.85;;;0.10;95.80;;;;;;4995890;28;20429;-74
2021/03/18 04:11:26;;;;;;;11.13;3.00;;;0.10;95.90;;;;;;5014641;28;20433;-75
2021/03/18 04:13:52;;;;;;;12.85;3.97;;;0.10;95.80;;;;;;5011771;28;20042;-75
2021/03/18 04:16:22;;;;;;;16.58;3.70;;;0.00;95.80;;;;;;5012531;28;20029;-74
2021/03/18 04:18:48;;;;;;;9.90;3.28;;;0.00;95.90;;;;;;5016239;28;20040;-74
2021/03/18 04:21:15;;;;;;;10.73;4.55;;;-0.10;95.90;;;;;;4996647;28;20026;-75
2021/03/18 04:23:42;;;;;;;18.15;3.28;;;-0.10;95.90;;;;;;5014050;28;20034;-74
2021/03/18 04:26:09;;;;;;;10.77;2.53;;;-0.10;96.00;;;;;;5011978;28;20025;-74
2021/03/18 04:28:36;;;;;;;4.60;2.58;;;-0.20;95.90;;;;;;5004152;28;20030;-75
2021/03/18 04:31:04;;;;;;;10.90;3.28;;;-0.20;95.90;;;;;;4995053;28;20509;-74
2021/03/18 04:33:30;;;;;;;10.85;3.10;;;-0.20;95.90;;;;;;5006646;28;20042;-74
2021/03/18 04:35:57;;;;;;;27.95;3.40;;;-0.20;96.00;;;;;;4995904;28;20029;-74
2021/03/18 04:38:25;;;;;;;9.38;2.88;;;-0.30;96.10;;;;;;5008067;28;20096;-75
2021/03/18 04:40:52;;;;;;;7.70;3.47;;;-0.30;96.10;;;;;;5011553;28;20022;-74
2021/03/18 04:43:18;;;;;;;7.95;3.47;;;-0.30;96.10;;;;;;5005057;28;20210;-74
2021/03/18 04:45:45;;;;;;;14.52;4.00;;;-0.30;96.10;;;;;;5014277;28;20033;-73
2021/03/18 04:48:12;;;;;;;12.27;3.70;;;-0.30;96.10;;;;;;5004598;28;20029;-74
2021/03/18 04:50:38;;;;;;;12.68;4.10;;;-0.30;96.20;;;;;;5011847;28;20064;-75
2021/03/18 04:53:03;;;;;;;8.75;3.75;;;-0.20;96.30;;;;;;5011908;28;20494;-74
2021/03/18 04:55:29;;;;;;;12.23;4.15;;;-0.20;96.30;;;;;;5013545;28;20103;-74
2021/03/18 04:58:04;;;;;;;11.10;3.10;;;-0.20;96.30;;;;;;5009637;28;20029;-74
2021/03/18 05:00:30;;;;;;;11.82;3.83;;;-0.10;96.20;;;;;;5013832;28;20026;-74
2021/03/18 05:03:01;;;;;;;13.85;3.00;;;-0.10;96.20;;;;;;5011901;28;20052;-74
2021/03/18 05:05:29;;;;;;;14.05;3.28;;;0.00;96.30;;;;;;4994047;28;20077;-74
2021/03/18 05:07:55;;;;;;;10.10;4.50;;;0.00;96.30;;;;;;5010786;28;20085;-74
2021/03/18 05:10:24;;;;;;;15.88;3.75;;;0.10;96.30;;;;;;5012556;28;20030;-75
2021/03/18 05:12:55;;;;;;;12.02;3.42;;;0.20;96.30;;;;;;5010656;28;20066;-75
2021/03/18 05:15:21;;;;;;;11.18;3.70;;;0.20;96.20;;;;;;5012657;28;20033;-74
2021/03/18 05:17:48;;;;;;;13.63;3.40;;;0.20;96.20;;;;;;4997626;28;20053;-74
2021/03/18 05:20:16;;;;;;;7.85;2.55;;;0.30;96.20;;;;;;5010887;28;20037;-75
2021/03/18 05:22:44;;;;;;;9.65;3.03;;;0.30;96.20;;;;;;5012295;28;20076;-75
2021/03/18 05:25:10;;;;;;;18.13;4.00;;;0.30;96.20;;;;;;5011687;28;20030;-75
2021/03/18 05:27:38;;;;;;;13.65;5.05;;;0.30;96.20;;;;;;5012642;28;20026;-75
2021/03/18 05:30:06;;;;;;;11.73;4.10;;;0.40;96.30;;;;;;5010544;28;20422;-75
2021/03/18 05:32:33;;;;;;;19.83;3.72;;;0.50;96.30;;;;;;5010489;28;20041;-74
2021/03/18 05:34:58;;;;;;;15.90;4.45;;;0.50;96.20;;;;;;5010934;28;20040;-75
2021/03/18 05:37:24;;;;;;;17.85;4.00;;;0.60;96.20;;;;;;5011998;28;20030;-75
2021/03/18 05:39:49;;;;;;;17.52;4.20;;;0.70;96.20;;;;;;5012326;28;20029;-75
2021/03/18 05:42:16;;;;;;;13.77;4.80;;;0.70;96.20;;;;;;5011450;28;20026;-74
2021/03/18 05:44:44;;;;;;;18.77;4.85;;;0.80;96.20;;;;;;4990213;28;20176;-75
2021/03/18 05:47:10;;;;;;;14.27;4.63;;;0.80;96.20;;;;;;5007221;28;20034;-74
2021/03/18 05:49:36;;;;;;;14.77;5.22;;;0.90;96.10;;;;;;4965670;28;20430;-75
2021/03/18 05:52:02;;;;;;;16.55;5.00;;;0.90;96.10;;;;;;4994995;28;20414;-75
2021/03/18 05:54:29;;;;;;;15.35;6.55;;;0.90;96.10;;;;;;5010926;28;20037;-75
2021/03/18 05:56:56;;;;;;;18.75;6.18;;;1.00;96.20;;;;;;5011969;28;20362;-75
2021/03/18 05:59:22;;;;;;;17.15;6.30;;;1.10;96.20;;;;;;5010293;28;20693;-74
2021/03/18 06:01:49;;;;;;;15.30;6.07;;;1.20;96.20;;;;;;5010338;28;20057;-75
2021/03/18 06:04:14;;;;;;;16.65;6.93;;;1.20;96.20;;;;;;5003704;28;20486;-75
2021/03/18 06:06:43;;;;;;;16.83;7.00;;;1.30;96.10;;;;;;5007130;28;20089;-75
2021/03/18 06:09:09;;;;;;;14.82;6.53;;;1.30;96.10;;;;;;5009317;28;20580;-75
2021/03/18 06:11:35;;;;;;;16.73;6.82;;;1.40;96.00;;;;;;5009514;28;20033;-74
2021/03/18 06:14:01;;;;;;;25.30;8.25;;;1.40;96.00;;;;;;5002059;28;20042;-74
2021/03/18 06:16:27;;;;;;;21.13;7.68;;;1.50;96.00;;;;;;5011448;28;20116;-75
2021/03/18 06:18:53;;;;;;;19.30;8.35;;;1.50;96.00;;;;;;4992542;28;20092;-75
2021/03/18 06:21:19;;;;;;;18.40;7.85;;;1.50;96.00;;;;;;4991670;28;20033;-75
2021/03/18 06:24:01;;;;;;;13.30;6.65;;;1.60;96.00;;;;;;5003444;28;20027;-75
2021/03/18 06:26:37;;;;;;;17.30;8.25;;;1.60;96.00;;;;;;4994253;28;20465;-75
2021/03/18 06:29:36;;;;;;;23.15;8.02;;;1.70;96.00;;;;;;5001970;28;20084;-76
2021/03/18 06:32:34;;;;;;;21.15;8.07;;;1.70;95.90;;;;;;5009829;28;20030;-75
2021/03/18 06:34:59;;;;;;;21.42;7.65;;;1.80;96.00;;;;;;5003420;28;20058;-75
2021/03/18 06:37:37;;;;;;;17.25;7.93;;;1.80;96.00;;;;;;5009338;28;21592;-76
2021/03/18 06:40:15;;;;;;;25.58;9.35;;;1.80;95.90;;;;;;5011228;28;20398;-76
2021/03/18 06:42:53;;;;;;;18.85;8.23;;;1.90;95.90;;;;;;5013122;28;20032;-76
2021/03/18 06:45:19;;;;;;;21.73;8.13;;;1.90;95.90;;;;;;5022751;28;20404;-75
2021/03/18 06:47:57;;;;;;;16.92;8.15;;;1.90;95.90;;;;;;5013316;28;20379;-75
2021/03/18 06:50:28;;;;;;;14.55;7.63;;;1.90;96.20;;;;;;5008072;28;20029;-75
2021/03/18 06:52:54;;;;;;;18.80;8.40;;;2.00;95.90;;;;;;5009078;28;20044;-76
2021/03/18 06:55:32;;;;;;;19.95;8.52;;;2.00;95.90;;;;;;5009980;28;20026;-76
2021/03/18 06:58:25;;;;;;;16.73;8.18;;;2.00;96.00;;;;;;5007153;28;20038;-75
2021/03/18 07:00:52;;;;;;;19.13;8.25;;;2.10;96.00;;;;;;5004020;28;20030;-75
2021/03/18 07:03:26;;;;;;;19.08;9.23;;;2.10;95.90;;;;;;5014429;28;20109;-76
2021/03/18 07:05:52;;;;;;;18.80;8.45;;;2.20;95.90;;;;;;5015268;28;20058;-76
2021/03/18 07:08:23;;;;;;;22.33;9.35;;;2.20;96.20;;;;;;5011483;28;20135;-75
2021/03/18 07:10:49;;;;;;;27.40;9.85;;;2.30;96.00;;;;;;5014955;28;20034;-74
2021/03/18 07:13:16;;;;;;;20.45;9.80;;;2.40;96.00;;;;;;5014321;28;20064;-73
2021/03/18 07:15:42;;;;;;;24.88;10.25;;;2.50;96.00;;;;;;5013496;28;20033;-75
2021/03/18 07:18:10;;;;;;;29.42;11.65;;;2.50;95.90;;;;;;5015103;28;20482;-75
2021/03/18 07:20:35;;;;;;;23.67;12.18;;;2.60;95.90;;;;;;5012460;28;20022;-75
2021/03/18 07:23:12;;;;;;;19.80;11.02;;;2.60;95.80;;;;;;5014575;28;20032;-75
2021/03/18 07:25:46;;;;;;;21.35;11.13;;;2.70;95.90;;;;;;5014179;28;20025;-75
2021/03/18 07:28:14;;;;;;;32.13;12.20;;;2.70;95.90;;;;;;5012074;28;20026;-75
2021/03/18 07:30:41;;;;;;;25.85;12.95;;;2.80;95.90;;;;;;5009092;28;20029;-75
2021/03/18 07:33:07;;;;;;;21.35;11.27;;;2.90;95.80;;;;;;5001448;28;20078;-73
2021/03/18 07:35:34;;;;;;;39.35;15.02;;;2.90;95.80;;;;;;5011333;28;20505;-77
2021/03/18 07:38:00;;;;;;;27.33;13.77;;;3.00;95.90;;;;;;5003323;28;20037;-75
2021/03/18 07:40:27;;;;;;;30.17;14.15;;;3.10;95.90;;;;;;5023219;28;20062;-75
2021/03/18 07:42:57;;;;;;;25.42;13.00;;;3.20;95.90;;;;;;5006634;28;20042;-76
2021/03/18 07:45:25;;;;;;;25.48;12.75;;;3.40;95.90;;;;;;4985836;28;20032;-75
2021/03/18 07:47:51;;;;;;;28.23;13.18;;;3.50;95.90;;;;;;5014661;28;20111;-74
2021/03/18 07:50:27;;;;;;;29.00;13.07;;;3.60;95.80;;;;;;5012128;28;20434;-74
2021/03/18 07:52:55;;;;;;;24.80;12.30;;;3.70;95.50;;;;;;5004685;28;20065;-75
2021/03/18 07:55:22;;;;;;;34.45;13.38;;;3.70;95.50;;;;;;4997936;28;20023;-75
2021/03/18 07:57:51;;;;;;;20.73;11.45;;;3.70;95.50;;;;;;5003637;28;20143;-75
2021/03/18 08:00:22;;;;;;;24.23;11.20;;;3.80;95.60;;;;;;4997778;28;20034;-75
2021/03/18 08:02:49;;;;;;;21.77;11.60;;;3.80;95.60;;;;;;5009281;28;20026;-77
2021/03/18 08:05:40;;;;;;;28.27;11.35;;;3.80;95.30;;;;;;5013276;28;20046;-75
2021/03/18 08:08:07;;;;;;;24.77;12.45;;;3.90;95.30;;;;;;5013695;28;20038;-75
2021/03/18 08:10:41;;;;;;;24.83;10.88;;;3.90;95.40;;;;;;5012229;28;20053;-76
2021/03/18 08:13:07;;;;;;;22.80;11.25;;;4.00;95.40;;;;;;5009558;28;20092;-74
2021/03/18 08:15:39;;;;;;;25.48;12.77;;;4.00;95.30;;;;;;5012781;28;20034;-74
2021/03/18 08:18:14;;;;;;;25.77;11.63;;;4.10;95.30;;;;;;5016207;28;20492;-76
2021/03/18 08:20:49;;;;;;;25.63;11.82;;;4.20;95.40;;;;;;5012618;28;20022;-77
2021/03/18 08:23:26;;;;;;;31.20;12.07;;;4.20;95.70;;;;;;5005508;28;20101;-77
2021/03/18 08:25:54;;;;;;;22.40;12.32;;;4.40;95.30;;;;;;5009945;28;20030;-76
2021/03/18 08:28:59;;;;;;;26.95;11.93;;;4.40;95.30;;;;;;5010582;28;20366;-76
2021/03/18 08:31:43;;;;;;;25.60;12.68;;;4.50;95.10;;;;;;5013171;28;20556;-76
2021/03/18 08:34:10;;;;;;;20.63;10.50;;;4.60;95.30;;;;;;5008882;28;20486;-74
2021/03/18 08:36:36;;;;;;;24.02;11.52;;;4.70;95.40;;;;;;5009552;28;20037;-75
2021/03/18 08:39:33;;;;;;;21.67;10.38;;;4.90;95.30;;;;;;4994882;28;20033;-74
2021/03/18 08:41:59;;;;;;;23.35;10.52;;;5.00;95.00;;;;;;4994354;28;20109;-75
2021/03/18 08:44:31;;;;;;;22.20;10.98;;;5.10;95.10;;;;;;5007447;28;20037;-76
2021/03/18 08:47:01;;;;;;;23.83;10.27;;;5.30;95.00;;;;;;4991210;28;20037;-77
2021/03/18 08:49:32;;;;;;;29.00;10.52;;;5.50;95.00;;;;;;4999524;28;20036;-76
2021/03/18 08:52:01;;;;;;;18.60;8.20;;;5.60;94.90;;;;;;4992984;28;20108;-76
2021/03/18 08:54:39;;;;;;;15.73;8.45;;;5.60;94.80;;;;;;5007870;28;20664;-79
2021/03/18 08:57:24;;;;;;;20.10;9.23;;;5.70;94.50;;;;;;5009682;28;20034;-76
2021/03/18 08:59:57;;;;;;;27.13;8.77;;;5.70;94.40;;;;;;4986269;28;20429;-77
2021/03/18 09:02:34;;;;;;;;;;;5.70;94.10;;;;;;5012972;28;20031;-75
2021/03/18 09:05:03;;;;;;;24.33;8.68;;;5.70;94.20;;;;;;5004479;28;19909;-75
2021/03/18 09:07:30;;;;;;;26.65;8.93;;;5.70;94.10;;;;;;4999092;28;20042;-76
2021/03/18 09:10:16;;;;;;;28.88;9.07;;;5.80;94.10;;;;;;4990646;28;20117;-76
2021/03/18 09:12:45;;;;;;;27.30;8.32;;;5.90;94.20;;;;;;5009049;28;21819;-76
2021/03/18 09:15:16;;;;;;;26.08;8.52;;;6.00;94.20;;;;;;5005808;28;20490;-76
2021/03/18 09:17:44;;;;;;;19.60;5.93;;;6.10;94.20;;;;;;5004810;28;21311;-75
2021/03/18 09:20:11;;;;;;;21.92;5.88;;;6.30;94.00;;;;;;5003706;28;20083;-75
2021/03/18 09:22:37;;;;;;;24.10;7.38;;;6.30;93.70;;;;;;4987475;28;20033;-76
2021/03/18 09:25:04;;;;;;;23.67;6.85;;;6.30;93.60;;;;;;5008353;28;20104;-77
2021/03/18 09:27:38;;;;;;;24.00;6.50;;;6.30;93.50;;;;;;5009243;28;20033;-76
2021/03/18 09:30:31;;;;;;;25.25;6.72;;;6.30;93.60;;;;;;4988348;28;20026;-76
2021/03/18 09:32:57;;;;;;;24.63;5.85;;;6.40;93.40;;;;;;4992807;28;20597;-74
2021/03/18 09:35:23;;;;;;;24.23;5.93;;;6.30;93.40;;;;;;5011254;28;20073;-77
2021/03/18 09:37:50;;;;;;;25.60;7.70;;;6.40;93.50;;;;;;5009821;28;20022;-76
2021/03/18 09:40:16;;;;;;;29.63;6.32;;;6.40;93.20;;;;;;4998601;28;20145;-75
2021/03/18 09:42:42;;;;;;;28.05;6.72;;;6.50;93.50;;;;;;5004218;28;20033;-76
2021/03/18 09:45:10;;;;;;;30.48;5.65;;;6.60;93.40;;;;;;5009064;28;20065;-76
2021/03/18 09:47:37;;;;;;;38.45;6.85;;;6.60;92.90;;;;;;4994214;28;20483;-76
2021/03/18 09:50:05;;;;;;;26.48;6.22;;;6.60;92.90;;;;;;5008469;28;20092;-76
2021/03/18 09:52:31;;;;;;;27.33;6.53;;;6.80;93.20;;;;;;5001143;28;20499;-77
2021/03/18 09:54:58;;;;;;;27.52;5.55;;;7.00;93.00;;;;;;5012274;28;20093;-75
2021/03/18 09:57:29;;;;;;;33.88;5.80;;;7.10;92.80;;;;;;5011037;28;20026;-76
2021/03/18 09:59:55;;;;;;;20.88;4.70;;;7.20;92.50;;;;;;4988671;28;20033;-76
2021/03/18 10:02:29;;;;;;;25.83;5.10;;;7.20;92.20;;;;;;5006127;28;20057;-76
2021/03/18 10:04:55;;;;;;;24.20;5.22;;;7.30;92.30;;;;;;5006234;28;20052;-77
2021/03/18 10:07:27;;;;;;;25.77;4.70;;;7.30;91.90;;;;;;5012174;28;20049;-75
2021/03/18 10:09:52;;;;;;;25.33;4.95;;;7.40;91.90;;;;;;4992002;28;20037;-75
2021/03/18 10:12:20;;;;;;;23.38;4.55;;;7.50;91.90;;;;;;4992299;28;20109;-75
2021/03/18 10:14:55;;;;;;;23.05;5.38;;;7.60;91.80;;;;;;4997041;28;20026;-75
2021/03/18 10:17:26;;;;;;;28.88;6.25;;;7.60;91.70;;;;;;5009632;28;20030;-77
2021/03/18 10:20:08;;;;;;;27.80;6.10;;;7.70;91.20;;;;;;5004782;28;20030;-76
2021/03/18 10:22:40;;;;;;;21.30;4.55;;;7.80;91.20;;;;;;5005161;28;20418;-76
2021/03/18 10:25:23;;;;;;;25.27;5.32;;;7.90;91.10;;;;;;4992200;28;20088;-76
2021/03/18 10:27:59;;;;;;;26.35;5.43;;;7.80;90.00;;;;;;5009073;28;20022;-76
2021/03/18 10:30:25;;;;;;;20.85;4.40;;;7.80;90.10;;;;;;5009422;28;20128;-76
2021/03/18 10:33:11;;;;;;;19.63;4.13;;;7.90;90.20;;;;;;5006414;28;20140;-77
2021/03/18 10:35:58;;;;;;;28.13;4.93;;;8.00;90.30;;;;;;5010096;28;20056;-77
2021/03/18 10:38:37;;;;;;;25.67;5.13;;;8.10;88.70;;;;;;5016803;28;20117;-77
2021/03/18 10:41:06;;;;;;;34.95;5.78;;;8.00;88.50;;;;;;5010951;28;20022;-77
2021/03/18 10:43:36;;;;;;;29.25;4.03;;;8.00;88.80;;;;;;5008709;28;20023;-77
2021/03/18 10:46:08;;;;;;;26.92;4.07;;;8.20;88.20;;;;;;5003624;28;20030;-77
2021/03/18 10:48:36;;;;;;;21.40;4.15;;;8.10;88.20;;;;;;5016272;28;20030;-77
2021/03/18 10:51:09;;;;;;;25.35;3.80;;;8.20;88.00;;;;;;5009162;28;20509;-76
2021/03/18 10:53:37;;;;;;;23.25;4.13;;;8.20;87.60;;;;;;5014988;28;20073;-76
2021/03/18 10:56:05;;;;;;;21.10;4.57;;;8.00;87.20;;;;;;5014967;28;20481;-76
2021/03/18 10:58:31;;;;;;;19.85;2.75;;;8.00;86.90;;;;;;5013992;28;20026;-76
2021/03/18 11:01:01;;;;;;;20.98;2.95;;;8.00;87.90;;;;;;5015527;28;20550;-76
2021/03/18 11:03:38;;;;;;;28.38;4.10;;;8.20;88.00;;;;;;5013031;28;20101;-76
2021/03/18 11:06:21;;;;;;;16.88;3.47;;;8.20;87.00;;;;;;5011974;28;20033;-76
2021/03/18 11:08:54;;;;;;;25.33;4.60;;;8.20;87.30;;;;;;5014403;28;20088;-76
2021/03/18 11:11:22;;;;;;;28.95;5.18;;;8.00;86.90;;;;;;5014492;28;20033;-76
2021/03/18 11:13:48;;;;;;;26.70;4.72;;;7.90;87.30;;;;;;5014743;28;20030;-76
2021/03/18 11:16:24;;;;;;;19.38;4.68;;;8.00;87.90;;;;;;5009447;28;20536;-77
2021/03/18 11:18:56;;;;;;;20.48;4.45;;;8.10;87.60;;;;;;5000895;28;20041;-77
2021/03/18 11:21:55;;;;;;;27.33;5.57;;;8.10;87.10;;;;;;5010915;28;20390;-77
2021/03/18 11:24:21;;;;;;;30.15;6.60;;;8.00;87.20;;;;;;4996365;28;20065;-76
2021/03/18 11:26:52;;;;;;;25.55;5.10;;;8.30;88.30;;;;;;5009576;28;20025;-77
2021/03/18 11:29:19;;;;;;;26.20;6.07;;;8.60;87.70;;;;;;5009512;28;20490;-77
2021/03/18 11:31:49;;;;;;;21.17;4.40;;;8.80;85.20;;;;;;5009808;28;20061;-76
2021/03/18 11:34:21;;;;;;;26.77;5.63;;;8.80;85.50;;;;;;5011783;28;20073;-77
2021/03/18 11:36:50;;;;;;;22.05;5.22;;;8.80;85.40;;;;;;5009432;28;20389;-76
2021/03/18 11:39:17;;;;;;;28.40;5.47;;;8.70;84.60;;;;;;5010962;28;20108;-77
2021/03/18 11:41:43;;;;;;;23.02;4.95;;;8.60;84.40;;;;;;5007032;28;20492;-76
2021/03/18 11:44:08;;;;;;;26.25;5.03;;;8.50;85.00;;;;;;5009061;28;20037;-76
2021/03/18 11:46:34;;;;;;;31.50;5.60;;;8.40;85.10;;;;;;5009404;28;20068;-76
2021/03/18 11:49:00;;;;;;;29.08;5.20;;;8.30;84.90;;;;;;5003491;28;20034;-76
2021/03/18 11:51:26;;;;;;;22.27;5.45;;;8.30;85.10;;;;;;5008136;28;20080;-77
2021/03/18 11:53:53;;;;;;;23.02;5.72;;;8.20;85.10;;;;;;4995224;28;20469;-76
2021/03/18 11:56:19;;;;;;;21.52;4.55;;;8.20;85.40;;;;;;5009251;28;20056;-76
2021/03/18 11:58:44;;;;;;;28.17;5.22;;;8.20;85.30;;;;;;5008538;28;20486;-76
2021/03/18 12:01:10;;;;;;;19.27;4.85;;;8.20;85.70;;;;;;5006758;28;21912;-76
2021/03/18 12:03:36;;;;;;;31.58;6.85;;;8.30;85.80;;;;;;5008054;28;20105;-76
2021/03/18 12:06:01;;;;;;;20.70;5.32;;;8.30;85.20;;;;;;5011167;28;20041;-75
2021/03/18 12:08:27;;;;;;;26.27;6.55;;;8.30;85.20;;;;;;5007622;28;20151;-75
2021/03/18 12:10:52;;;;;;;22.40;5.90;;;8.20;85.20;;;;;;5003027;28;20168;-76
2021/03/18 12:13:18;;;;;;;26.83;6.40;;;8.10;85.60;;;;;;5001889;28;20077;-77
2021/03/18 12:15:44;;;;;;;23.63;6.53;;;8.10;86.10;;;;;;5003085;28;20482;-78
2021/03/18 12:18:09;;;;;;;25.00;5.57;;;8.00;86.30;;;;;;5005799;28;20086;-75
2021/03/18 12:20:35;;;;;;;26.38;6.35;;;8.00;86.40;;;;;;5002187;28;20394;-77
2021/03/18 12:23:01;;;;;;;21.65;4.80;;;8.00;86.70;;;;;;5005201;28;20034;-77
2021/03/18 12:25:27;;;;;;;28.27;5.72;;;8.00;86.60;;;;;;5011424;28;20386;-77
2021/03/18 12:27:52;;;;;;;17.60;4.82;;;8.00;86.50;;;;;;5016790;28;20077;-77
2021/03/18 12:30:21;;;;;;;22.58;4.80;;;8.10;86.90;;;;;;5013808;28;20040;-77
2021/03/18 12:32:48;;;;;;;34.78;6.75;;;8.10;86.70;;;;;;5005329;28;20054;-77
2021/03/18 12:35:15;;;;;;;20.90;5.80;;;8.10;86.90;;;;;;5006721;28;20092;-76
2021/03/18 12:37:41;;;;;;;25.30;6.80;;;8.20;86.70;;;;;;5007836;28;20022;-77
2021/03/18 12:40:09;;;;;;;22.85;5.28;;;8.30;85.90;;;;;;5011382;28;20021;-77
2021/03/18 12:42:35;;;;;;;20.35;5.47;;;8.30;85.60;;;;;;5005578;28;20077;-75
2021/03/18 12:45:03;;;;;;;26.73;6.55;;;8.30;85.00;;;;;;5005645;28;20038;-77
2021/03/18 12:47:28;;;;;;;26.35;6.03;;;8.20;85.00;;;;;;5008357;28;20072;-76
2021/03/18 12:49:54;;;;;;;25.00;5.70;;;8.20;85.40;;;;;;4991948;28;20053;-76
2021/03/18 12:52:20;;;;;;;22.63;5.90;;;8.40;85.50;;;;;;5007728;28;20126;-76
2021/03/18 12:54:45;;;;;;;23.90;5.13;;;8.40;85.10;;;;;;5008158;28;20114;-76
2021/03/18 12:57:11;;;;;;;20.35;5.50;;;8.40;83.90;;;;;;5009648;28;20030;-76
2021/03/18 12:59:37;;;;;;;27.73;6.57;;;8.30;84.10;;;;;;5007608;28;20057;-74